Normand Subsea — 2CQP8 — position and weather

sailwx.info

Track history (hours):
 
Tides and Currents Weather Stations Pressure Air Temp Water Temp Dewpoint Dewpoint Depression Visibility Wind Speed Wind Dir Waves Ship Positions

Normand Subsea

Last reported at 2014-Jul-28 09:33 UTC. Time now 2014-Jul-28 10:30 UTC.
Position N 55°58' W 004°52'.

Length 113 m; draft 7.5 m.

Type: Other ship. MMSI: 235074949.

Date/timePositionNaut miles runAvg speedWind from/ knotsBaromVisibWave heightAir tempDewpointWater temp
2014-Jul-28 09:33N 55°58' W 004°52'0 0.0
2014-Jul-28 08:33N 55°58' W 004°52'0 0.0
2014-Jul-28 07:33N 55°58' W 004°52'0 0.0
2014-Jul-28 06:33N 55°58' W 004°52'0 0.0
2014-Jul-28 05:31N 55°58' W 004°52'0 0.0
2014-Jul-28 04:33N 55°58' W 004°52'0 0.1
2014-Jul-28 03:31N 55°58' W 004°52'11 9.4
2014-Jul-28 02:22N 55°48' W 004°58'810.4
2014-Jul-28 01:33N 55°39' W 004°60'1010.3
2014-Jul-28 00:33N 55°29' W 005°02'2010.0
2014-Jul-27 22:33N 55°16' W 005°29'1312.6
2014-Jul-27 21:33N 55°14' W 005°51'1313.0
2014-Jul-27 20:33N 55°21' W 006°10'1312.6
2014-Jul-27 19:33N 55°27' W 006°30'1212.0
2014-Jul-27 18:33N 55°38' W 006°41'1111.0
2014-Jul-27 17:34N 55°47' W 006°49'1010.1
2014-Jul-27 16:34N 55°56' W 006°58'133 9.3
2014-Jul-27 02:20N 58°06' W 006°07'8 9.9
2014-Jul-27 01:34N 58°12' W 005°57'10 9.5
2014-Jul-27 00:34N 58°19' W 005°44'9 9.3
2014-Jul-26 23:34N 58°25' W 005°32'47 9.3
2014-Jul-26 18:30N 58°55' W 004°22'9 9.7
2014-Jul-26 17:33N 58°60' W 004°07'10 9.7
2014-Jul-26 16:33N 59°05' W 003°51'1010.1
2014-Jul-26 15:33N 59°11' W 003°35'1010.4
2014-Jul-26 14:34N 59°17' W 003°19'1110.5
2014-Jul-26 13:33N 59°24' W 003°03'14110.0
2014-Jul-25 23:24N 60°42' E 000°54'1210.9
2014-Jul-25 22:20N 60°50' E 001°10'  
Track history (hours):
 
Tides and Currents Weather Stations Pressure Air Temp Water Temp Dewpoint Dewpoint Depression Visibility Wind Speed Wind Dir Waves Ship Positions

Normand Subsea

Last reported at 2014-Jul-28 09:33 UTC. Time now 2014-Jul-28 10:30 UTC.
Position N 55°58' W 004°52'.

Length 113 m; draft 7.5 m.

Type: Other ship. MMSI: 235074949.

Date/timePositionNaut miles runAvg speedWind from/ knotsBaromVisibWave heightAir tempDewpointWater temp
2014-Jul-28 09:33N 55°58' W 004°52'0 0.0
2014-Jul-28 08:33N 55°58' W 004°52'0 0.0
2014-Jul-28 07:33N 55°58' W 004°52'0 0.0
2014-Jul-28 06:33N 55°58' W 004°52'0 0.0
2014-Jul-28 05:31N 55°58' W 004°52'0 0.0
2014-Jul-28 04:33N 55°58' W 004°52'0 0.1
2014-Jul-28 03:31N 55°58' W 004°52'11 9.4
2014-Jul-28 02:22N 55°48' W 004°58'810.4
2014-Jul-28 01:33N 55°39' W 004°60'1010.3
2014-Jul-28 00:33N 55°29' W 005°02'2010.0
2014-Jul-27 22:33N 55°16' W 005°29'1312.6
2014-Jul-27 21:33N 55°14' W 005°51'1313.0
2014-Jul-27 20:33N 55°21' W 006°10'1312.6
2014-Jul-27 19:33N 55°27' W 006°30'1212.0
2014-Jul-27 18:33N 55°38' W 006°41'1111.0
2014-Jul-27 17:34N 55°47' W 006°49'1010.1
2014-Jul-27 16:34N 55°56' W 006°58'133 9.3
2014-Jul-27 02:20N 58°06' W 006°07'8 9.9
2014-Jul-27 01:34N 58°12' W 005°57'10 9.5
2014-Jul-27 00:34N 58°19' W 005°44'9 9.3
2014-Jul-26 23:34N 58°25' W 005°32'47 9.3
2014-Jul-26 18:30N 58°55' W 004°22'9 9.7
2014-Jul-26 17:33N 58°60' W 004°07'10 9.7
2014-Jul-26 16:33N 59°05' W 003°51'1010.1
2014-Jul-26 15:33N 59°11' W 003°35'1010.4
2014-Jul-26 14:34N 59°17' W 003°19'1110.5
2014-Jul-26 13:33N 59°24' W 003°03'14110.0
2014-Jul-25 23:24N 60°42' E 000°54'1210.9
2014-Jul-25 22:20N 60°50' E 001°10'  

Dump ship's entire track history